createdAt,value
2023-01-05T00:01:11.701Z,101626.50
2023-01-05T00:03:39.061Z,101619.88
2023-01-05T00:06:11.429Z,101621.28
2023-01-05T00:08:38.900Z,101612.75
2023-01-05T00:11:45.046Z,101614.16
2023-01-05T00:14:35.894Z,101610.84
2023-01-05T00:17:21.379Z,101611.13
2023-01-05T00:20:07.034Z,101603.97
2023-01-05T00:22:39.041Z,101610.88
2023-01-05T00:25:13.777Z,101613.59
2023-01-05T00:27:42.481Z,101603.19
2023-01-05T00:30:12.008Z,101600.72
2023-01-05T00:32:39.142Z,101603.69
2023-01-05T00:35:06.188Z,101597.69
2023-01-05T00:37:35.610Z,101595.22
2023-01-05T00:40:02.484Z,101600.97
2023-01-05T00:42:29.562Z,101597.94
2023-01-05T00:44:56.458Z,101598.78
2023-01-05T00:47:23.356Z,101591.63
2023-01-05T00:49:50.279Z,101592.44
2023-01-05T00:52:17.444Z,101592.41
2023-01-05T00:54:44.291Z,101587.22
2023-01-05T00:57:12.374Z,101589.69
2023-01-05T00:59:39.811Z,101578.94
2023-01-05T01:02:07.238Z,101584.19
2023-01-05T01:04:34.981Z,101579.81
2023-01-05T01:07:04.504Z,101580.34
2023-01-05T01:09:31.546Z,101571.53
2023-01-05T01:11:58.569Z,101571.00
2023-01-05T01:14:25.952Z,101562.72
2023-01-05T01:16:52.827Z,101558.59
2023-01-05T01:19:25.157Z,101548.13
2023-01-05T01:21:52.188Z,101553.94
2023-01-05T01:24:25.965Z,101541.59
2023-01-05T01:26:54.115Z,101544.34
2023-01-05T01:29:21.993Z,101538.63
2023-01-05T01:31:50.347Z,101543.78
2023-01-05T01:34:17.744Z,101530.31
2023-01-05T01:36:45.080Z,101523.16
2023-01-05T01:39:13.549Z,101521.56
2023-01-05T01:41:43.832Z,101510.25
2023-01-05T01:44:48.928Z,101522.97
2023-01-05T01:47:20.188Z,101511.44
2023-01-05T01:49:47.626Z,101505.69
2023-01-05T01:52:15.322Z,101503.25
2023-01-05T01:54:42.813Z,101497.50
2023-01-05T01:57:11.840Z,101502.94
2023-01-05T01:59:39.573Z,101490.31
2023-01-05T02:02:07.972Z,101491.72
2023-01-05T02:04:37.681Z,101498.00
2023-01-05T02:07:07.491Z,101495.75
2023-01-05T02:09:35.053Z,101487.81
2023-01-05T02:12:09.307Z,101485.34
2023-01-05T02:15:00.249Z,101484.81
2023-01-05T02:17:58.758Z,101477.16
2023-01-05T02:20:48.010Z,101476.31
2023-01-05T02:23:36.029Z,101456.81
2023-01-05T02:26:41.256Z,101458.72
2023-01-05T02:29:11.185Z,101457.03
2023-01-05T02:31:58.204Z,101449.94
2023-01-05T02:34:58.519Z,101446.66
2023-01-05T02:37:34.788Z,101449.06
2023-01-05T02:40:21.146Z,101438.38
2023-01-05T02:42:53.220Z,101435.41
2023-01-05T02:45:23.369Z,101433.22
2023-01-05T02:47:55.233Z,101433.16
2023-01-05T02:50:41.336Z,101429.88
2023-01-05T02:53:29.894Z,101421.66
2023-01-05T02:56:05.115Z,101416.75
2023-01-05T02:58:41.855Z,101417.81
2023-01-05T03:01:17.499Z,101412.81
2023-01-05T03:03:58.757Z,101410.66
2023-01-05T03:06:33.884Z,101404.94
2023-01-05T03:09:05.030Z,101407.09
2023-01-05T03:12:19.458Z,101407.09
2023-01-05T03:27:09.954Z,101384.47
2023-01-05T03:29:56.016Z,101380.88
2023-01-05T03:32:45.870Z,101380.59
2023-01-05T03:35:38.542Z,101377.88
2023-01-05T03:38:40.532Z,101365.28
2023-01-05T03:41:12.723Z,101373.50
2023-01-05T03:43:43.214Z,101367.72
2023-01-05T03:46:14.154Z,101368.03
2023-01-05T03:48:43.496Z,101365.28
2023-01-05T03:51:10.558Z,101368.06
2023-01-05T03:53:40.062Z,101365.56
2023-01-05T03:56:07.878Z,101366.94
2023-01-05T03:58:35.228Z,101357.34
2023-01-05T04:01:02.357Z,101354.91
2023-01-05T04:03:32.268Z,101354.06
2023-01-05T04:06:03.277Z,101350.50
2023-01-05T04:08:32.440Z,101354.34
2023-01-05T04:11:18.034Z,101352.69
2023-01-05T04:13:53.365Z,101354.06
2023-01-05T04:16:21.469Z,101351.34
2023-01-05T04:18:50.280Z,101352.69
2023-01-05T04:21:19.598Z,101352.41
2023-01-05T04:23:48.527Z,101345.78
2023-01-05T04:26:17.034Z,101346.88
2023-01-05T04:28:49.565Z,101350.44
2023-01-05T04:31:18.922Z,101340.59
2023-01-05T04:33:46.029Z,101347.44
2023-01-05T04:36:17.743Z,101345.50
2023-01-05T04:38:46.192Z,101340.53
2023-01-05T04:41:13.767Z,101348.50
2023-01-05T04:43:44.511Z,101344.06
2023-01-05T04:46:12.878Z,101344.28
2023-01-05T04:48:39.771Z,101348.13
2023-01-05T04:51:07.692Z,101343.72
2023-01-05T04:53:37.640Z,101339.31
2023-01-05T04:56:06.727Z,101339.28
2023-01-05T04:58:41.047Z,101334.63
2023-01-05T05:01:08.301Z,101330.69
2023-01-05T05:03:36.981Z,101330.22
2023-01-05T05:06:07.062Z,101327.22
2023-01-05T05:08:33.951Z,101325.31
2023-01-05T05:11:02.978Z,101325.81
2023-01-05T05:13:33.008Z,101306.91
2023-01-05T05:16:01.267Z,101305.50
2023-01-05T05:18:29.712Z,101298.25
2023-01-05T05:20:56.591Z,101288.16
2023-01-05T05:23:29.078Z,101289.59
2023-01-05T05:25:57.382Z,101285.66
2023-01-05T05:28:28.371Z,101295.28
2023-01-05T05:30:59.311Z,101294.78
2023-01-05T05:33:29.635Z,101292.53
2023-01-05T05:35:56.593Z,101280.97
2023-01-05T05:38:23.563Z,101282.94
2023-01-05T05:40:50.625Z,101279.31
2023-01-05T05:43:17.658Z,101281.06
2023-01-05T05:45:49.953Z,101278.84
2023-01-05T05:48:18.415Z,101285.38
2023-01-05T05:50:45.930Z,101277.44
2023-01-05T05:53:13.054Z,101274.06
2023-01-05T05:55:39.971Z,101259.34
2023-01-05T05:58:07.084Z,101259.94
2023-01-05T06:00:34.254Z,101260.44
2023-01-05T06:03:01.292Z,101258.88
2023-01-05T06:05:28.447Z,101250.69
2023-01-05T06:07:55.228Z,101248.38
2023-01-05T06:10:22.120Z,101250.75
2023-01-05T06:12:49.128Z,101241.41
2023-01-05T06:15:16.134Z,101250.31
2023-01-05T06:17:43.020Z,101244.56
2023-01-05T06:20:10.250Z,101238.06
2023-01-05T06:22:37.327Z,101232.28
2023-01-05T06:25:05.278Z,101226.78
2023-01-05T06:27:32.699Z,101233.38
2023-01-05T06:29:59.659Z,101231.72
2023-01-05T06:32:26.525Z,101230.28
2023-01-05T06:34:53.396Z,101224.41
2023-01-05T06:37:20.412Z,101222.94
2023-01-05T06:39:47.234Z,101219.78
2023-01-05T06:42:14.965Z,101221.22
2023-01-05T06:44:43.846Z,101214.97
2023-01-05T06:47:10.721Z,101220.09
2023-01-05T06:49:37.530Z,101221.97
2023-01-05T06:52:04.792Z,101226.81
2023-01-05T06:54:31.563Z,101215.91
2023-01-05T06:56:58.491Z,101223.09
2023-01-05T06:59:25.372Z,101221.16
2023-01-05T07:01:52.361Z,101222.34
2023-01-05T07:04:19.604Z,101226.66
2023-01-05T07:06:46.723Z,101225.88
2023-01-05T07:09:13.653Z,101216.69
2023-01-05T07:11:40.498Z,101209.22
2023-01-05T07:14:07.366Z,101216.69
2023-01-05T07:16:34.206Z,101211.09
2023-01-05T07:19:01.144Z,101209.44
2023-01-05T07:21:28.085Z,101209.84
2023-01-05T07:23:55.005Z,101208.25
2023-01-05T07:26:22.012Z,101200.59
2023-01-05T07:28:48.907Z,101189.38
2023-01-05T07:31:15.957Z,101195.09
2023-01-05T07:33:42.881Z,101181.56
2023-01-05T07:36:10.045Z,101194.25
2023-01-05T07:38:36.928Z,101187.44
2023-01-05T07:41:04.208Z,101185.47
2023-01-05T07:43:31.180Z,101187.56
2023-01-05T07:46:02.467Z,101175.41
2023-01-05T07:48:29.557Z,101179.47
2023-01-05T07:51:04.653Z,101182.78
2023-01-05T07:53:38.105Z,101179.69
2023-01-05T07:56:12.007Z,101171.66
2023-01-05T07:58:39.083Z,101176.69
2023-01-05T08:01:12.377Z,101175.56
2023-01-05T08:03:39.848Z,101162.50
2023-01-05T08:06:09.088Z,101163.13
2023-01-05T08:08:36.421Z,101156.53
2023-01-05T08:11:09.544Z,101147.72
2023-01-05T08:13:55.361Z,101154.19
2023-01-05T08:16:22.932Z,101153.69
2023-01-05T08:18:49.861Z,101147.13
2023-01-05T08:21:16.832Z,101143.16
2023-01-05T08:23:45.886Z,101124.34
2023-01-05T08:26:15.827Z,101131.13
2023-01-05T08:28:43.209Z,101121.88
2023-01-05T08:31:17.947Z,101111.97
2023-01-05T08:33:45.382Z,101119.75
2023-01-05T08:36:15.561Z,101102.59
2023-01-05T08:38:48.321Z,101101.13
2023-01-05T08:41:17.949Z,101094.38
2023-01-05T08:43:44.863Z,101088.47
2023-01-05T08:46:11.793Z,101084.56
2023-01-05T08:48:38.673Z,101082.25
2023-01-05T08:51:07.537Z,101073.63
2023-01-05T08:53:34.948Z,101079.53
2023-01-05T08:56:02.653Z,101071.94
2023-01-05T08:58:29.690Z,101059.28
2023-01-05T09:00:56.686Z,101048.59
2023-01-05T09:03:23.705Z,101040.84
2023-01-05T09:05:54.465Z,101041.88
2023-01-05T09:08:21.368Z,101030.94
2023-01-05T09:10:48.281Z,101026.66
2023-01-05T09:13:17.185Z,101026.34
2023-01-05T09:15:44.167Z,101021.69
2023-01-05T09:18:11.118Z,101019.53
2023-01-05T09:20:42.544Z,101016.38
2023-01-05T09:23:09.392Z,101006.88
2023-01-05T09:25:38.903Z,101004.56
2023-01-05T09:28:05.772Z,100996.53
2023-01-05T09:30:40.985Z,100983.19
2023-01-05T09:33:09.085Z,100978.78
2023-01-05T09:35:35.886Z,100974.19
2023-01-05T09:38:02.749Z,100978.91
2023-01-05T09:40:35.132Z,100967.81
2023-01-05T09:43:02.156Z,100966.69
2023-01-05T09:45:29.213Z,100957.75
2023-01-05T09:47:59.341Z,100940.47
2023-01-05T09:50:31.052Z,100934.34
2023-01-05T09:53:00.219Z,100930.81
2023-01-05T09:55:30.749Z,100920.47
2023-01-05T09:58:27.926Z,100914.50
2023-01-05T10:01:07.622Z,100909.41
2023-01-05T10:04:03.996Z,100903.22
2023-01-05T10:06:34.687Z,100894.59
2023-01-05T10:09:04.418Z,100895.00
2023-01-05T10:12:03.566Z,100890.13
2023-01-05T10:14:53.063Z,100872.75
2023-01-05T10:20:14.263Z,100858.75
2023-01-05T10:22:57.974Z,100854.31
2023-01-05T10:25:48.911Z,100849.50
2023-01-05T10:28:25.131Z,100828.59
2023-01-05T10:31:03.041Z,100828.22
2023-01-05T10:34:05.932Z,100818.97
2023-01-05T10:37:09.485Z,100824.69
2023-01-05T10:39:56.674Z,100815.56
2023-01-05T10:42:46.438Z,100810.03
2023-01-05T10:45:19.741Z,100799.47
2023-01-05T10:47:49.455Z,100797.09
2023-01-05T10:50:22.596Z,100799.59
2023-01-05T10:52:49.721Z,100791.25
2023-01-05T10:55:19.075Z,100784.81
2023-01-05T10:57:46.931Z,100788.84
2023-01-05T11:00:21.297Z,100780.19
2023-01-05T11:03:03.230Z,100785.53
2023-01-05T11:05:37.192Z,100775.16
2023-01-05T11:08:25.810Z,100781.25
2023-01-05T11:11:07.816Z,100771.00
2023-01-05T11:13:46.598Z,100761.75
2023-01-05T11:16:16.550Z,100754.78
2023-01-05T11:18:55.385Z,100753.06
2023-01-05T11:21:29.081Z,100738.19
2023-01-05T11:23:59.004Z,100736.28
2023-01-05T11:26:28.186Z,100735.81
2023-01-05T11:29:10.285Z,100717.25
2023-01-05T11:32:02.306Z,100714.31
2023-01-05T11:34:31.274Z,100716.97
2023-01-05T11:37:08.108Z,100710.34
2023-01-05T11:39:47.403Z,100711.59
2023-01-05T11:42:29.640Z,100711.88
2023-01-05T11:45:08.211Z,100703.69
2023-01-05T11:47:46.421Z,100701.97
2023-01-05T11:50:13.336Z,100693.13
2023-01-05T11:52:46.945Z,100688.41
2023-01-05T11:55:19.970Z,100679.34
2023-01-05T11:57:50.527Z,100671.06
2023-01-05T12:00:32.572Z,100676.06
2023-01-05T12:03:30.420Z,100664.94
2023-01-05T12:06:04.440Z,100674.28
2023-01-05T12:08:41.922Z,100672.38
2023-01-05T12:11:19.308Z,100667.47
2023-01-05T12:14:07.489Z,100676.63
2023-01-05T12:16:37.193Z,100668.25
2023-01-05T12:19:32.977Z,100666.28
2023-01-05T12:22:05.877Z,100670.22
2023-01-05T12:25:09.895Z,100677.28
2023-01-05T12:27:51.322Z,100672.50
2023-01-05T12:36:21.677Z,100663.16
2023-01-05T12:38:58.508Z,100658.34
2023-01-05T12:42:09.929Z,100654.28
2023-01-05T12:44:51.405Z,100651.19
2023-01-05T12:47:39.879Z,100652.59
2023-01-05T12:50:37.730Z,100636.63
2023-01-05T12:53:26.257Z,100642.78
2023-01-05T12:56:00.945Z,100638.16
2023-01-05T12:58:34.998Z,100642.09
2023-01-05T13:01:05.943Z,100639.19
2023-01-05T13:04:17.586Z,100642.16
2023-01-05T13:06:52.090Z,100648.53
2023-01-05T13:09:23.065Z,100644.72
2023-01-05T13:11:59.495Z,100646.13
2023-01-05T13:14:31.062Z,100645.31
2023-01-05T13:17:10.452Z,100652.75
2023-01-05T13:19:44.978Z,100640.06
2023-01-05T13:22:28.639Z,100634.16
2023-01-05T13:25:01.081Z,100641.94
2023-01-05T13:27:29.815Z,100640.66
2023-01-05T13:29:59.813Z,100634.25
2023-01-05T13:32:57.655Z,100618.72
2023-01-05T13:35:49.377Z,100593.94
2023-01-05T13:38:37.885Z,100589.84
2023-01-05T13:41:19.231Z,100595.91
2023-01-05T13:43:49.093Z,100597.34
2023-01-05T13:47:03.537Z,100601.00
2023-01-05T13:49:51.867Z,100580.91
2023-01-05T13:52:24.634Z,100584.97
2023-01-05T13:55:01.969Z,100575.72
2023-01-05T13:57:37.854Z,100583.22
2023-01-05T14:00:12.420Z,100579.31
2023-01-05T14:02:43.391Z,100577.53
2023-01-05T14:05:25.928Z,100572.31
2023-01-05T14:07:55.494Z,100561.34
2023-01-05T14:10:28.994Z,100554.94
2023-01-05T14:12:56.689Z,100553.84
2023-01-05T14:15:32.694Z,100557.22
2023-01-05T14:18:04.145Z,100559.97
2023-01-05T14:20:39.882Z,100575.44
2023-01-05T14:23:29.848Z,100568.69
2023-01-05T14:26:00.871Z,100562.16
2023-01-05T14:28:30.821Z,100571.09
2023-01-05T14:31:19.030Z,100578.22
2023-01-05T14:34:03.693Z,100579.13
2023-01-05T14:36:39.495Z,100585.19
2023-01-05T14:39:20.198Z,100577.09
2023-01-05T14:41:59.303Z,100574.34
2023-01-05T14:44:36.061Z,100576.78
2023-01-05T14:47:04.653Z,100572.25
2023-01-05T14:49:55.191Z,100570.16
2023-01-05T14:52:59.038Z,100566.75
2023-01-05T14:55:39.601Z,100573.13
2023-01-05T14:58:36.197Z,100579.50
2023-01-05T15:03:53.493Z,100581.44
2023-01-05T15:07:08.545Z,100566.00
2023-01-05T15:09:54.140Z,100577.88
2023-01-05T15:12:39.832Z,100580.19
2023-01-05T15:29:27.560Z,100568.34
2023-01-05T15:32:18.508Z,100563.84
2023-01-05T15:34:52.906Z,100569.75
2023-01-05T15:37:27.526Z,100575.78
2023-01-05T15:39:56.679Z,100567.16
2023-01-05T15:42:34.524Z,100574.97
2023-01-05T15:45:01.804Z,100580.16
2023-01-05T15:47:30.112Z,100574.81
2023-01-05T15:50:00.053Z,100574.63
2023-01-05T15:52:38.088Z,100578.88
2023-01-05T15:55:10.690Z,100583.56
2023-01-05T15:57:37.594Z,100580.81
2023-01-05T16:00:18.179Z,100573.03
2023-01-05T16:02:45.186Z,100571.88
2023-01-05T16:05:18.335Z,100563.44
2023-01-05T16:07:47.312Z,100561.19
2023-01-05T16:10:24.038Z,100559.06
2023-01-05T16:12:57.181Z,100554.03
2023-01-05T16:15:26.213Z,100543.31
2023-01-05T16:17:56.936Z,100548.97
2023-01-05T16:20:26.026Z,100546.06
2023-01-05T16:23:22.003Z,100547.38
2023-01-05T16:25:59.407Z,100530.16
2023-01-05T16:28:26.954Z,100522.69
2023-01-05T16:30:55.138Z,100518.44
2023-01-05T16:33:36.015Z,100515.00
2023-01-05T16:36:13.368Z,100518.13
2023-01-05T16:38:41.160Z,100516.19
2023-01-05T16:41:54.363Z,100528.19
2023-01-05T16:44:21.237Z,100523.91
2023-01-05T16:47:04.827Z,100535.06
2023-01-05T16:49:43.595Z,100526.44
2023-01-05T16:52:23.941Z,100532.59
2023-01-05T16:55:35.799Z,100535.34
2023-01-05T16:58:24.402Z,100523.94
2023-01-05T17:00:51.468Z,100523.78
2023-01-05T17:03:31.514Z,100520.50
2023-01-05T17:06:00.653Z,100515.28
2023-01-05T17:08:31.836Z,100510.13
2023-01-05T17:11:00.571Z,100512.75
2023-01-05T17:13:37.623Z,100511.91
2023-01-05T17:16:06.004Z,100506.41
2023-01-05T17:18:32.828Z,100505.44
2023-01-05T17:21:00.936Z,100509.47
2023-01-05T17:23:31.416Z,100506.22
2023-01-05T17:26:03.477Z,100501.66
2023-01-05T17:28:30.488Z,100488.16
2023-01-05T17:30:57.477Z,100497.69
2023-01-05T17:33:24.433Z,100498.47
2023-01-05T17:35:51.596Z,100489.47
2023-01-05T17:38:18.658Z,100488.97
2023-01-05T17:40:45.469Z,100486.41
2023-01-05T17:43:12.426Z,100490.78
2023-01-05T17:45:44.102Z,100493.66
2023-01-05T17:50:45.011Z,100491.59
2023-01-05T17:53:11.987Z,100490.78
2023-01-05T17:55:41.474Z,100482.00
2023-01-05T17:58:09.256Z,100486.22
2023-01-05T18:00:39.829Z,100476.97
2023-01-05T18:03:06.761Z,100482.78
2023-01-05T18:05:33.652Z,100479.84
2023-01-05T18:08:00.594Z,100488.88
2023-01-05T18:10:29.328Z,100478.50
2023-01-05T18:12:56.925Z,100476.38
2023-01-05T18:15:24.032Z,100480.97
2023-01-05T18:17:50.916Z,100492.81
2023-01-05T18:20:19.972Z,100486.69
2023-01-05T18:22:48.719Z,100487.81
2023-01-05T18:25:16.152Z,100490.69
2023-01-05T18:27:43.461Z,100491.69
2023-01-05T18:30:12.133Z,100489.75
2023-01-05T18:32:39.485Z,100487.34
2023-01-05T18:35:10.000Z,100480.25
2023-01-05T18:37:38.844Z,100486.56
2023-01-05T18:40:06.681Z,100481.44
2023-01-05T18:42:33.623Z,100486.97
2023-01-05T18:45:08.949Z,100479.03
2023-01-05T18:47:49.297Z,100483.09
2023-01-05T18:50:16.650Z,100495.41
2023-01-05T18:52:43.517Z,100484.50
2023-01-05T18:55:11.310Z,100481.75
2023-01-05T18:57:38.239Z,100486.16
2023-01-05T19:00:06.178Z,100484.00
2023-01-05T19:02:33.092Z,100484.94
2023-01-05T19:05:00.069Z,100483.16
2023-01-05T19:07:27.615Z,100474.38
2023-01-05T19:09:54.556Z,100474.25
2023-01-05T19:12:21.456Z,100470.81
2023-01-05T19:14:48.415Z,100475.22
2023-01-05T19:17:15.269Z,100467.72
2023-01-05T19:19:42.275Z,100487.63
2023-01-05T19:22:09.142Z,100483.25
2023-01-05T19:24:38.410Z,100484.88
2023-01-05T19:27:05.405Z,100483.06
2023-01-05T19:29:32.277Z,100489.09
2023-01-05T19:31:59.119Z,100485.22
2023-01-05T19:34:26.069Z,100479.91
2023-01-05T19:36:52.966Z,100479.03
2023-01-05T19:39:21.966Z,100472.75
2023-01-05T19:41:51.511Z,100478.78
2023-01-05T19:44:21.324Z,100477.44
2023-01-05T19:46:54.667Z,100476.97
2023-01-05T19:49:27.139Z,100480.34
2023-01-05T19:51:54.518Z,100475.22
2023-01-05T19:54:22.673Z,100474.22
2023-01-05T19:56:49.658Z,100464.38
2023-01-05T19:59:19.354Z,100471.56
2023-01-05T20:01:46.363Z,100467.00
2023-01-05T20:04:14.080Z,100465.84
2023-01-05T20:06:44.506Z,100465.38
2023-01-05T20:09:17.547Z,100465.19
2023-01-05T20:11:59.386Z,100473.75
2023-01-05T20:14:32.966Z,100473.56
2023-01-05T20:17:04.100Z,100473.25
2023-01-05T20:19:32.476Z,100470.09
2023-01-05T20:22:01.167Z,100477.59
2023-01-05T20:24:31.169Z,100475.94
2023-01-05T20:27:01.389Z,100470.56
2023-01-05T20:29:29.290Z,100470.75
2023-01-05T20:31:59.526Z,100459.38
2023-01-05T20:34:31.877Z,100462.22
2023-01-05T20:37:00.299Z,100468.34
2023-01-05T20:39:27.235Z,100472.66
2023-01-05T20:41:54.994Z,100458.59
2023-01-05T20:44:25.589Z,100455.78
2023-01-05T20:46:54.262Z,100456.56
2023-01-05T20:49:22.136Z,100462.28
2023-01-05T20:51:49.632Z,100448.13
2023-01-05T20:54:16.553Z,100461.94
2023-01-05T20:56:46.245Z,100462.81
2023-01-05T20:59:26.549Z,100459.25
2023-01-05T21:01:56.653Z,100457.94
2023-01-05T21:04:25.291Z,100460.59
2023-01-05T21:06:54.428Z,100451.53
2023-01-05T21:09:25.600Z,100463.03
2023-01-05T21:11:52.484Z,100458.03
2023-01-05T21:14:20.107Z,100452.03
2023-01-05T21:16:53.004Z,100464.31
2023-01-05T21:19:23.206Z,100451.97
2023-01-05T21:21:53.961Z,100454.16
2023-01-05T21:24:21.529Z,100454.94
2023-01-05T21:26:50.868Z,100449.72
2023-01-05T21:29:20.425Z,100444.66
2023-01-05T21:31:47.981Z,100440.66
2023-01-05T21:34:15.431Z,100453.47
2023-01-05T21:36:45.371Z,100448.97
2023-01-05T21:39:22.099Z,100457.88
2023-01-05T21:42:08.778Z,100448.09
2023-01-05T21:44:36.347Z,100451.00
2023-01-05T21:47:05.843Z,100456.41
2023-01-05T21:49:36.585Z,100452.31
2023-01-05T21:52:23.140Z,100444.22
2023-01-05T21:55:08.577Z,100423.78
2023-01-05T21:57:35.417Z,100415.88
2023-01-05T22:00:03.036Z,100418.50
2023-01-05T22:02:31.901Z,100404.72
2023-01-05T22:04:58.708Z,100410.56
2023-01-05T22:07:25.568Z,100400.00
2023-01-05T22:09:52.485Z,100401.03
2023-01-05T22:12:19.383Z,100402.63
2023-01-05T22:14:46.337Z,100389.66
2023-01-05T22:17:13.329Z,100396.13
2023-01-05T22:19:40.095Z,100398.56
2023-01-05T22:22:07.191Z,100389.53
2023-01-05T22:24:34.011Z,100393.28
2023-01-05T22:27:00.908Z,100388.41
2023-01-05T22:29:27.840Z,100392.31
2023-01-05T22:31:54.844Z,100390.09
2023-01-05T22:34:21.791Z,100397.75
2023-01-05T22:36:49.249Z,100385.28
2023-01-05T22:39:16.662Z,100387.72
2023-01-05T22:41:43.606Z,100390.50
2023-01-05T22:44:10.458Z,100391.47
2023-01-05T22:46:38.920Z,100394.91
2023-01-05T22:49:06.066Z,100384.00
2023-01-05T22:51:36.021Z,100396.66
2023-01-05T22:54:04.430Z,100378.69
2023-01-05T22:56:32.769Z,100392.78
2023-01-05T22:59:00.121Z,100394.25
2023-01-05T23:01:31.381Z,100395.84
2023-01-05T23:04:00.447Z,100399.28
2023-01-05T23:06:28.316Z,100396.06
2023-01-05T23:08:55.926Z,100396.69
2023-01-05T23:11:31.361Z,100398.78
2023-01-05T23:14:00.218Z,100404.66
2023-01-05T23:16:27.998Z,100411.47
2023-01-05T23:18:55.437Z,100415.22
2023-01-05T23:21:24.400Z,100428.69
2023-01-05T23:23:52.555Z,100422.34
2023-01-05T23:26:20.442Z,100435.34
2023-01-05T23:28:48.127Z,100429.00
2023-01-05T23:31:16.480Z,100423.47
2023-01-05T23:33:44.081Z,100421.03
2023-01-05T23:36:12.768Z,100415.38
2023-01-05T23:38:40.195Z,100415.34
2023-01-05T23:41:08.701Z,100412.13
2023-01-05T23:43:38.009Z,100410.97
2023-01-05T23:46:17.730Z,100408.72
2023-01-05T23:48:44.660Z,100414.38
2023-01-05T23:51:17.121Z,100413.72
2023-01-05T23:53:49.180Z,100415.03
2023-01-05T23:56:19.524Z,100412.28
2023-01-05T23:58:47.444Z,100411.63
